Time;durP1;ratioP1;P1;durP2;ratioP2;P2;SDS_P1;SDS_P2;PMS_P1;PMS_P2;Temp;Humidity;BMP_temperature;BMP_pressure;BME280_temperature;BME280_humidity;BME280_pressure;Samples;Min_cycle;Max_cycle;Signal;HPM_P1;HPM_P2
2021/10/14 00:01:50;;;;;;;;;;;;;;;8.68;95.30;100024.19;5011952;28;874;-65
2021/10/14 00:04:17;;;;;;;;;;;;;;;8.63;95.21;100035.56;5011860;28;890;-66
2021/10/14 00:06:45;;;;;;;;;;;;;;;8.59;94.65;100030.03;5011710;28;819;-65
2021/10/14 00:09:12;;;;;;;;;;;;;;;8.57;94.69;100040.63;5011797;28;951;-65
2021/10/14 00:11:39;;;;;;;;;;;;;;;8.57;94.74;100032.38;4993924;28;1944;-65
2021/10/14 00:14:06;;;;;;;;;;;;;;;8.60;95.20;100037.13;5011879;28;846;-65
2021/10/14 00:16:32;;;;;;;;;;;;;;;8.62;94.73;100039.47;4994072;28;1265;-65
2021/10/14 00:18:59;;;;;;;;;;;;;;;8.63;94.94;100041.88;5011592;28;1258;-65
2021/10/14 00:21:26;;;;;;;;;;;;;;;8.61;94.56;100035.94;5011758;28;897;-65
2021/10/14 00:23:53;;;;;;;;;;;;;;;8.62;95.01;100043.06;5015188;28;1088;-65
2021/10/14 00:26:20;;;;;;;;;;;;;;;8.63;95.10;100041.09;5015922;28;926;-66
2021/10/14 00:28:47;;;;;;;;;;;;;;;8.59;95.03;100047.34;5015654;28;803;-65
2021/10/14 00:31:14;;;;;;;;;;;;;;;8.64;94.98;100053.66;5015537;28;1973;-65
2021/10/14 00:33:41;;;;;;;;;;;;;;;8.69;94.77;100047.81;5015638;28;890;-65
2021/10/14 00:36:07;;;;;;;;;;;;;;;8.71;94.96;100050.97;5015532;28;815;-65
2021/10/14 00:38:33;;;;;;;;;;;;;;;8.71;94.63;100050.97;5015511;28;855;-67
2021/10/14 00:41:00;;;;;;;;;;;;;;;8.69;94.71;100048.59;5015464;28;823;-65
2021/10/14 00:43:26;;;;;;;;;;;;;;;8.71;94.75;100048.22;5015491;28;811;-66
2021/10/14 00:45:53;;;;;;;;;;;;;;;8.72;94.85;100047.81;5015313;28;914;-66
2021/10/14 00:48:19;;;;;;;;;;;;;;;8.74;94.91;100048.22;5015469;28;826;-67
2021/10/14 00:50:45;;;;;;;;;;;;;;;8.67;94.65;100056.47;5015254;28;1887;-67
2021/10/14 00:53:13;;;;;;;;;;;;;;;8.62;94.95;100051.31;5015158;28;883;-66
2021/10/14 00:55:40;;;;;;;;;;;;;;;8.65;95.13;100063.53;5015253;28;898;-66
2021/10/14 00:58:05;;;;;;;;;;;;;;;8.66;95.15;100063.13;5015066;28;827;-64
2021/10/14 01:00:32;;;;;;;;;;;;;;;8.71;95.01;100062.78;5015110;28;909;-66
2021/10/14 01:02:58;;;;;;;;;;;;;;;8.71;95.18;100060.03;5015062;28;811;-65
2021/10/14 01:05:25;;;;;;;;;;;;;;;8.69;94.97;100056.88;5015300;28;1052;-66
2021/10/14 01:07:51;;;;;;;;;;;;;;;8.71;95.11;100064.75;5015222;28;819;-66
2021/10/14 01:10:18;;;;;;;;;;;;;;;8.69;94.98;100073.41;5014852;28;1882;-67
2021/10/14 01:12:46;;;;;;;;;;;;;;;8.68;94.93;100065.50;5014852;28;848;-67
2021/10/14 01:15:16;;;;;;;;;;;;;;;8.67;95.03;100069.44;5014829;28;838;-66
2021/10/14 01:17:43;;;;;;;;;;;;;;;8.71;95.60;100078.53;5015144;28;928;-67
2021/10/14 01:20:11;;;;;;;;;;;;;;;8.70;95.20;100080.47;5014956;28;854;-67
2021/10/14 01:22:38;;;;;;;;;;;;;;;8.65;95.21;100077.31;5014731;28;906;-67
2021/10/14 01:25:05;;;;;;;;;;;;;;;8.61;95.00;100082.78;4997007;28;1213;-66
2021/10/14 01:27:32;;;;;;;;;;;;;;;8.60;95.10;100081.22;5014489;28;1050;-67
2021/10/14 01:29:58;;;;;;;;;;;;;;;8.62;95.40;100080.81;5014505;28;1934;-67
2021/10/14 01:32:25;;;;;;;;;;;;;;;8.63;95.55;100085.94;5014505;28;854;-66
2021/10/14 01:34:52;;;;;;;;;;;;;;;8.65;95.56;100083.59;5014704;28;795;-66
2021/10/14 01:37:19;;;;;;;;;;;;;;;8.68;95.27;100082.81;5014528;28;879;-65
2021/10/14 01:39:44;;;;;;;;;;;;;;;8.68;95.34;100091.09;5014432;28;799;-66
2021/10/14 01:42:10;;;;;;;;;;;;;;;8.64;95.00;100093.06;5014387;28;867;-66
2021/10/14 01:44:37;;;;;;;;;;;;;;;8.62;95.08;100089.91;5014303;28;831;-66
2021/10/14 01:47:03;;;;;;;;;;;;;;;8.62;95.16;100092.66;5014213;28;849;-65
2021/10/14 01:49:30;;;;;;;;;;;;;;;8.63;95.21;100093.44;5014268;28;864;-66
2021/10/14 01:51:57;;;;;;;;;;;;;;;8.66;95.20;100098.16;5014122;28;1890;-66
2021/10/14 01:54:24;;;;;;;;;;;;;;;8.65;95.43;100097.38;4996469;28;1287;-67
2021/10/14 01:56:50;;;;;;;;;;;;;;;8.67;95.18;100102.53;5014077;28;846;-66
2021/10/14 01:59:16;;;;;;;;;;;;;;;8.66;95.37;100096.19;5014200;28;943;-67
2021/10/14 02:01:42;;;;;;;;;;;;;;;8.68;95.52;100104.88;5014294;28;815;-67
2021/10/14 02:04:08;;;;;;;;;;;;;;;8.71;95.40;100103.34;5014606;28;787;-66
2021/10/14 02:06:35;;;;;;;;;;;;;;;8.68;95.11;100095.81;5013774;28;874;-67
2021/10/14 02:09:02;;;;;;;;;;;;;;;8.68;95.15;100102.13;5013790;28;791;-67
2021/10/14 02:11:28;;;;;;;;;;;;;;;8.63;95.15;100098.94;4996121;28;1936;-67
2021/10/14 02:13:56;;;;;;;;;;;;;;;8.57;95.37;100095.75;5013692;28;859;-67
2021/10/14 02:16:23;;;;;;;;;;;;;;;8.53;95.15;100090.19;5013979;28;1024;-66
2021/10/14 02:18:49;;;;;;;;;;;;;;;8.52;95.49;100090.59;5013364;28;1218;-67
2021/10/14 02:21:17;;;;;;;;;;;;;;;8.51;95.30;100091.75;5013557;28;819;-68
2021/10/14 02:23:43;;;;;;;;;;;;;;;8.50;95.05;100098.44;5013594;28;815;-67
2021/10/14 02:26:10;;;;;;;;;;;;;;;8.48;95.12;100098.03;5013713;28;823;-67
2021/10/14 02:28:36;;;;;;;;;;;;;;;8.47;95.22;100097.25;4995831;28;867;-67
2021/10/14 02:31:03;;;;;;;;;;;;;;;8.47;95.29;100101.94;5013402;28;1919;-66
2021/10/14 02:33:29;;;;;;;;;;;;;;;8.49;95.29;100102.34;5013530;28;914;-66
2021/10/14 02:35:55;;;;;;;;;;;;;;;8.47;95.36;100099.19;5013360;28;799;-66
2021/10/14 02:38:22;;;;;;;;;;;;;;;8.48;95.49;100092.53;5013429;28;893;-65
2021/10/14 02:40:49;;;;;;;;;;;;;;;8.46;95.29;100097.63;5013278;28;851;-65
2021/10/14 02:43:16;;;;;;;;;;;;;;;8.44;95.09;100083.44;5013214;28;823;-65
2021/10/14 02:45:43;;;;;;;;;;;;;;;8.44;95.22;100080.69;5012606;28;811;-65
2021/10/14 02:48:10;;;;;;;;;;;;;;;8.43;95.70;100082.66;5013063;28;865;-65
2021/10/14 02:50:36;;;;;;;;;;;;;;;8.42;95.43;100072.00;5013045;28;1885;-65
2021/10/14 02:53:03;;;;;;;;;;;;;;;8.39;95.53;100074.31;5013065;28;807;-64
2021/10/14 02:55:30;;;;;;;;;;;;;;;8.38;95.26;100069.19;5012902;28;870;-66
2021/10/14 02:57:56;;;;;;;;;;;;;;;8.37;95.44;100073.13;5012942;28;812;-67
2021/10/14 03:00:23;;;;;;;;;;;;;;;8.36;95.26;100069.59;5012836;28;854;-67
2021/10/14 03:02:48;;;;;;;;;;;;;;;8.38;95.30;100080.22;5012824;28;894;-67
2021/10/14 03:05:15;;;;;;;;;;;;;;;8.39;95.36;100079.84;5013051;28;854;-67
2021/10/14 03:07:41;;;;;;;;;;;;;;;8.39;95.52;100093.59;5012729;28;827;-67
2021/10/14 03:10:09;;;;;;;;;;;;;;;8.39;95.20;100096.34;5012586;28;1894;-67
2021/10/14 03:12:36;;;;;;;;;;;;;;;8.39;95.55;100103.84;5012724;28;822;-67
2021/10/14 03:15:03;;;;;;;;;;;;;;;8.39;95.25;100110.13;5012547;28;862;-68
2021/10/14 03:17:29;;;;;;;;;;;;;;;8.41;95.44;100111.72;5012510;28;1009;-67
2021/10/14 03:19:56;;;;;;;;;;;;;;;8.43;95.30;100112.13;5012401;28;1397;-68
2021/10/14 03:22:23;;;;;;;;;;;;;;;8.43;95.09;100118.47;5012561;28;866;-67
2021/10/14 03:24:49;;;;;;;;;;;;;;;8.44;95.25;100122.00;5012324;28;843;-68
2021/10/14 03:27:16;;;;;;;;;;;;;;;8.44;95.27;100131.06;5012400;28;831;-68
2021/10/14 03:29:43;;;;;;;;;;;;;;;8.41;95.13;100101.53;5012421;28;862;-70
2021/10/14 03:32:09;;;;;;;;;;;;;;;8.42;95.05;100122.38;5012509;28;1918;-68
2021/10/14 03:34:36;;;;;;;;;;;;;;;8.42;95.13;100124.34;5012339;28;834;-69
2021/10/14 03:37:03;;;;;;;;;;;;;;;8.39;95.32;100115.63;5012355;28;854;-68
2021/10/14 03:39:30;;;;;;;;;;;;;;;8.41;94.96;100117.25;5012206;28;908;-69
2021/10/14 03:41:57;;;;;;;;;;;;;;;8.42;95.20;100121.59;5012235;28;850;-71
2021/10/14 03:44:23;;;;;;;;;;;;;;;8.42;94.96;100125.13;5012127;28;846;-70
2021/10/14 03:46:50;;;;;;;;;;;;;;;8.45;94.88;100116.13;5012138;28;846;-69
2021/10/14 03:49:16;;;;;;;;;;;;;;;8.47;95.00;100121.22;5012183;28;873;-71
2021/10/14 03:51:43;;;;;;;;;;;;;;;8.45;95.14;100115.31;5011956;28;1910;-72
2021/10/14 03:54:40;;;;;;;;;;;;;;;8.46;94.80;100122.41;4994519;28;1211;-72
2021/10/14 03:57:19;;;;;;;;;;;;;;;8.45;94.86;100123.56;5011311;28;835;-71
2021/10/14 03:59:46;;;;;;;;;;;;;;;8.44;94.91;100119.25;5011928;28;874;-71
2021/10/14 04:02:14;;;;;;;;;;;;;;;8.43;95.07;100114.91;5011839;28;839;-71
2021/10/14 04:07:44;;;;;;;;;;;;;;;8.40;94.98;100113.66;5012129;28;597;-70
2021/10/14 04:10:14;;;;;;;;;;;;;;;8.39;95.24;100103.84;4994446;28;1953;-70
2021/10/14 04:12:41;;;;;;;;;;;;;;;8.37;95.27;100103.44;4994431;28;1169;-69
2021/10/14 04:15:08;;;;;;;;;;;;;;;8.35;95.23;100105.75;5011790;28;819;-69
2021/10/14 04:17:35;;;;;;;;;;;;;;;8.36;95.32;100112.84;4994383;28;1201;-69
2021/10/14 04:20:03;;;;;;;;;;;;;;;8.37;95.32;100126.25;5011552;28;1276;-67
2021/10/14 04:22:29;;;;;;;;;;;;;;;8.39;95.55;100134.13;5011796;28;867;-66
2021/10/14 04:24:56;;;;;;;;;;;;;;;8.39;95.72;100128.63;5011569;28;891;-67
2021/10/14 04:27:22;;;;;;;;;;;;;;;8.42;95.52;100129.84;5011712;28;830;-68
2021/10/14 04:29:49;;;;;;;;;;;;;;;8.39;95.58;100132.16;5011699;28;912;-67
2021/10/14 04:32:16;;;;;;;;;;;;;;;8.38;95.46;100133.34;5011539;28;1978;-67
2021/10/14 04:34:43;;;;;;;;;;;;;;;8.37;95.52;100136.47;5011660;28;835;-67
2021/10/14 04:37:10;;;;;;;;;;;;;;;8.35;95.49;100134.09;5011597;28;957;-68
2021/10/14 04:39:37;;;;;;;;;;;;;;;8.34;95.36;100135.28;5011512;28;862;-67
2021/10/14 04:42:04;;;;;;;;;;;;;;;8.35;95.60;100141.56;5011582;28;831;-67
2021/10/14 04:44:30;;;;;;;;;;;;;;;8.33;95.18;100133.69;5011532;28;878;-67
2021/10/14 04:46:56;;;;;;;;;;;;;;;8.35;95.24;100138.81;5011473;28;799;-68
2021/10/14 04:49:23;;;;;;;;;;;;;;;8.37;95.44;100150.25;5011778;28;819;-68
2021/10/14 04:51:50;;;;;;;;;;;;;;;8.37;95.58;100144.75;5011684;28;1963;-68
2021/10/14 04:54:16;;;;;;;;;;;;;;;8.35;95.30;100131.34;5011603;28;955;-68
2021/10/14 04:56:43;;;;;;;;;;;;;;;8.34;95.46;100135.28;5011647;28;1010;-69
2021/10/14 04:59:09;;;;;;;;;;;;;;;8.36;95.49;100121.09;5012132;28;752;-67
2021/10/14 05:01:36;;;;;;;;;;;;;;;8.35;95.19;100125.03;4994365;28;1175;-68
2021/10/14 05:04:02;;;;;;;;;;;;;;;8.35;95.38;100117.56;5011938;28;787;-68
2021/10/14 05:09:34;;;;;;;;;;;;;;;8.34;94.82;100134.47;5013977;28;650;-68
2021/10/14 05:17:36;;;;;;;;;;;;;;;8.42;94.81;100129.84;5829534;23;1830;-66
2021/10/14 05:20:04;;;;;;;;;;;;;;;8.41;94.33;100150.28;5014766;28;838;-64
2021/10/14 05:22:31;;;;;;;;;;;;;;;8.41;93.88;100155.81;5014840;28;825;-65
2021/10/14 05:24:58;;;;;;;;;;;;;;;8.39;94.11;100154.19;4997079;28;1239;-66
2021/10/14 05:27:25;;;;;;;;;;;;;;;8.41;94.23;100153.03;5014703;28;920;-64
2021/10/14 05:29:51;;;;;;;;;;;;;;;8.39;94.20;100165.22;5014530;28;905;-64
2021/10/14 05:32:17;;;;;;;;;;;;;;;8.42;94.30;100158.19;5014555;28;1973;-65
2021/10/14 05:34:43;;;;;;;;;;;;;;;8.38;94.21;100158.13;4996843;28;1177;-62
2021/10/14 05:37:10;;;;;;;;;;;;;;;8.36;94.00;100156.91;5014545;28;870;-61
2021/10/14 05:39:37;;;;;;;;;;;;;;;8.35;94.29;100167.16;5014420;28;830;-62
2021/10/14 05:42:04;;;;;;;;;;;;;;;8.32;94.43;100167.91;5014504;28;886;-61
2021/10/14 05:44:31;;;;;;;;;;;;;;;8.36;94.37;100168.75;5014309;28;807;-60
2021/10/14 05:46:57;;;;;;;;;;;;;;;8.36;94.27;100163.25;5014307;28;873;-60
2021/10/14 05:49:23;;;;;;;;;;;;;;;8.37;94.33;100151.03;5014272;28;861;-62
2021/10/14 05:51:50;;;;;;;;;;;;;;;8.38;94.38;100160.91;5014203;28;1887;-60
2021/10/14 05:54:17;;;;;;;;;;;;;;;8.37;94.04;100161.25;4996562;28;1276;-60
2021/10/14 05:56:44;;;;;;;;;;;;;;;8.38;94.13;100162.84;5014293;28;803;-61
2021/10/14 05:59:10;;;;;;;;;;;;;;;8.39;94.07;100173.47;5014103;28;807;-60
2021/10/14 06:01:37;;;;;;;;;;;;;;;8.41;93.81;100175.09;5014463;28;799;-61
2021/10/14 06:04:03;;;;;;;;;;;;;;;8.43;93.62;100172.75;4996584;28;1205;-60
2021/10/14 06:06:31;;;;;;;;;;;;;;;8.44;93.51;100161.34;5014215;28;811;-60
2021/10/14 06:08:58;;;;;;;;;;;;;;;8.47;93.41;100174.38;5013971;28;850;-60
2021/10/14 06:11:24;;;;;;;;;;;;;;;8.52;93.15;100173.25;4996355;28;1953;-62
2021/10/14 06:13:51;;;;;;;;;;;;;;;8.55;93.18;100173.25;5014212;28;885;-60
2021/10/14 06:16:17;;;;;;;;;;;;;;;8.61;93.19;100161.91;5014224;28;905;-60
2021/10/14 06:18:44;;;;;;;;;;;;;;;8.62;92.80;100167.03;5013769;28;1255;-60
2021/10/14 06:21:10;;;;;;;;;;;;;;;8.65;92.58;100165.50;5012700;28;827;-59
2021/10/14 06:23:38;;;;;;;;;;;;;;;8.66;92.14;100167.84;5013564;28;807;-60
2021/10/14 06:26:04;;;;;;;;;;;;;;;8.68;92.23;100184.78;4995971;28;1229;-59
2021/10/14 06:28:31;;;;;;;;;;;;;;;8.69;92.24;100175.38;5014047;28;805;-59
2021/10/14 06:30:57;;;;;;;;;;;;;;;8.70;92.02;100176.94;5013332;28;1906;-60
2021/10/14 06:33:24;;;;;;;;;;;;;;;8.70;91.91;100184.41;5013377;28;851;-59
2021/10/14 06:35:50;;;;;;;;;;;;;;;8.71;92.04;100170.25;5013524;28;796;-59
2021/10/14 06:50:30;;;;;;;;;;;;;;;8.76;91.34;100182.91;5013367;28;1889;-59
2021/10/14 06:52:57;;;;;;;;;;;;;;;8.76;91.64;100185.66;5013035;28;854;-59
2021/10/14 06:55:23;;;;;;;;;;;;;;;8.77;91.56;100166.00;4995419;28;1185;-59
2021/10/14 06:57:50;;;;;;;;;;;;;;;8.82;91.56;100166.81;5012976;28;865;-59
2021/10/14 07:00:19;;;;;;;;;;;;;;;8.86;91.14;100175.91;5012858;28;854;-58
2021/10/14 07:02:46;;;;;;;;;;;;;;;8.90;90.71;100198.78;4995175;28;1368;-58
2021/10/14 07:05:13;;;;;;;;;;;;;;;8.93;90.45;100187.75;5012742;28;941;-59
2021/10/14 07:07:39;;;;;;;;;;;;;;;8.97;90.28;100174.78;5012805;28;803;-58
2021/10/14 07:10:08;;;;;;;;;;;;;;;8.96;90.29;100184.25;5012648;28;1882;-58
2021/10/14 07:12:38;;;;;;;;;;;;;;;8.98;90.25;100184.66;5012755;28;906;-58
2021/10/14 07:15:16;;;;;;;;;;;;;;;8.99;89.82;100202.00;5013022;28;818;-58
2021/10/14 07:17:42;;;;;;;;;;;;;;;9.00;89.83;100192.53;5012623;28;1254;-58
2021/10/14 07:20:09;;;;;;;;;;;;;;;8.98;89.95;100183.84;5012563;28;799;-58
2021/10/14 07:22:37;;;;;;;;;;;;;;;8.95;89.99;100190.13;5012881;28;795;-58
2021/10/14 07:25:04;;;;;;;;;;;;;;;8.93;90.07;100196.03;5012462;28;814;-58
2021/10/14 07:27:30;;;;;;;;;;;;;;;8.93;90.53;100207.06;5012510;28;791;-58
2021/10/14 07:29:58;;;;;;;;;;;;;;;8.93;90.27;100201.53;5012423;28;858;-58
2021/10/14 07:32:24;;;;;;;;;;;;;;;8.96;90.00;100191.72;5012403;28;1910;-58
2021/10/14 07:34:51;;;;;;;;;;;;;;;8.98;89.91;100208.66;4994668;28;1593;-58
2021/10/14 07:37:19;;;;;;;;;;;;;;;9.01;89.97;100199.66;5012287;28;807;-58
2021/10/14 07:39:46;;;;;;;;;;;;;;;9.03;89.68;100197.31;5012344;28;845;-58
2021/10/14 07:42:13;;;;;;;;;;;;;;;9.01;89.66;100202.41;5012176;28;811;-58
2021/10/14 07:44:40;;;;;;;;;;;;;;;8.99;89.92;100199.22;5012335;28;842;-58
2021/10/14 07:47:06;;;;;;;;;;;;;;;8.97;90.35;100193.31;5012085;28;854;-58
2021/10/14 07:49:33;;;;;;;;;;;;;;;8.92;90.66;100182.66;4994418;28;1296;-58
2021/10/14 07:51:59;;;;;;;;;;;;;;;8.88;90.93;100192.84;5012014;28;2371;-58
2021/10/14 07:54:26;;;;;;;;;;;;;;;8.84;90.79;100203.06;5012028;28;811;-58
2021/10/14 07:56:52;;;;;;;;;;;;;;;8.80;90.86;100214.03;5011933;28;909;-58
2021/10/14 07:59:36;;;;;;;;;;;;;;;8.79;90.40;100196.72;5012020;28;855;-58
2021/10/14 08:02:03;;;;;;;;;;;;;;;8.78;90.41;100199.84;5012214;28;795;-58
2021/10/14 08:04:29;;;;;;;;;;;;;;;8.76;91.02;100205.72;5011878;28;898;-58
2021/10/14 08:06:56;;;;;;;;;;;;;;;8.72;91.20;100202.16;4994286;28;1299;-59
2021/10/14 08:09:23;;;;;;;;;;;;;;;8.67;91.87;100208.03;5011754;28;862;-58
2021/10/14 08:11:50;;;;;;;;;;;;;;;8.57;92.24;100209.50;5011850;28;1890;-59
2021/10/14 08:14:16;;;;;;;;;;;;;;;8.53;92.50;100202.38;4994077;28;1455;-58
2021/10/14 08:16:43;;;;;;;;;;;;;;;8.52;93.13;100215.34;4994291;28;1497;-59
2021/10/14 08:19:10;;;;;;;;;;;;;;;8.53;93.24;100216.91;5011606;28;1414;-58
2021/10/14 08:21:36;;;;;;;;;;;;;;;8.54;93.20;100204.75;5011963;28;814;-58
2021/10/14 08:24:03;;;;;;;;;;;;;;;8.56;93.47;100207.13;5011957;28;839;-58
2021/10/14 08:26:29;;;;;;;;;;;;;;;8.51;92.89;100207.47;5012252;28;819;-58
2021/10/14 08:28:55;;;;;;;;;;;;;;;8.50;93.10;100205.88;5012356;28;807;-58
2021/10/14 08:31:24;;;;;;;;;;;;;;;8.51;93.28;100204.69;5011563;28;1918;-59
2021/10/14 08:33:51;;;;;;;;;;;;;;;8.51;92.99;100210.22;5012014;28;894;-58
2021/10/14 08:39:20;;;;;;;;;;;;;;;8.58;92.70;100205.56;5011655;28;661;-58
2021/10/14 08:41:47;;;;;;;;;;;;;;;8.70;92.87;100201.72;5011560;28;894;-58
2021/10/14 08:44:19;;;;;;;;;;;;;;;8.84;92.20;100203.06;5013749;28;814;-58
2021/10/14 08:46:47;;;;;;;;;;;;;;;8.95;91.82;100201.94;5015481;28;811;-58
2021/10/14 08:49:14;;;;;;;;;;;;;;;9.03;91.74;100204.78;4998087;28;1383;-58
2021/10/14 08:51:41;;;;;;;;;;;;;;;9.10;90.95;100211.13;4998069;28;1890;-58
2021/10/14 08:54:07;;;;;;;;;;;;;;;9.08;89.95;100216.22;5015329;28;957;-58
2021/10/14 08:56:53;;;;;;;;;;;;;;;9.08;89.42;100230.03;5015492;28;807;-58
2021/10/14 08:59:19;;;;;;;;;;;;;;;9.04;89.74;100215.41;5015493;28;791;-58
2021/10/14 09:02:04;;;;;;;;;;;;;;;9.03;89.44;100215.81;5015122;28;854;-58
2021/10/14 09:04:32;;;;;;;;;;;;;;;8.98;89.67;100228.78;5015159;28;778;-58
2021/10/14 09:07:09;;;;;;;;;;;;;;;8.98;89.63;100231.53;5015056;28;896;-58
2021/10/14 09:09:37;;;;;;;;;;;;;;;8.99;89.49;100218.53;5015009;28;881;-58
2021/10/14 09:12:05;;;;;;;;;;;;;;;9.05;88.63;100213.47;5014940;28;1886;-58
2021/10/14 09:14:55;;;;;;;;;;;;;;;9.09;88.47;100200.47;5014860;28;902;-58
2021/10/14 09:23:48;;;;;;;;;;;;;;;9.19;87.74;100217.09;4995240;28;711;-58
2021/10/14 09:26:24;;;;;;;;;;;;;;;9.18;87.75;100204.50;4995154;28;882;-58
2021/10/14 09:29:03;;;;;;;;;;;;;;;9.20;87.66;100215.94;4977607;28;1313;-58
2021/10/14 09:31:44;;;;;;;;;;;;;;;9.26;87.65;100204.53;4994979;28;1922;-57
2021/10/14 09:34:31;;;;;;;;;;;;;;;9.29;87.30;100198.25;4994992;28;883;-57
2021/10/14 09:36:58;;;;;;;;;;;;;;;9.36;87.19;100204.59;4987755;28;1348;-58
2021/10/14 09:39:26;;;;;;;;;;;;;;;9.45;86.74;100203.47;4994857;28;807;-58
2021/10/14 09:41:53;;;;;;;;;;;;;;;9.46;86.82;100192.06;4994763;28;858;-58
2021/10/14 09:44:20;;;;;;;;;;;;;;;9.48;86.10;100183.41;4977274;28;1336;-57
2021/10/14 09:59:01;;;;;;;;;;;;;;;9.71;85.80;100166.56;4994940;28;690;-57
2021/10/14 10:01:28;;;;;;;;;;;;;;;9.77;85.99;100176.03;4994497;28;810;-57
2021/10/14 10:03:56;;;;;;;;;;;;;;;9.82;85.31;100170.16;4994582;28;827;-57
2021/10/14 10:06:24;;;;;;;;;;;;;;;9.84;85.33;100173.34;4994358;28;874;-58
2021/10/14 10:08:51;;;;;;;;;;;;;;;9.85;85.38;100174.13;4994355;28;866;-58
2021/10/14 10:11:21;;;;;;;;;;;;;;;9.82;85.05;100175.69;4994221;28;1957;-58
2021/10/14 10:13:51;;;;;;;;;;;;;;;9.74;85.13;100160.28;4994041;28;831;-57
2021/10/14 10:16:21;;;;;;;;;;;;;;;9.73;85.43;100147.63;4994259;28;926;-57
2021/10/14 10:18:53;;;;;;;;;;;;;;;9.70;85.57;100164.97;4994262;28;823;-58
2021/10/14 10:21:31;;;;;;;;;;;;;;;9.71;85.91;100159.09;4978467;28;1441;-58
2021/10/14 10:24:03;;;;;;;;;;;;;;;9.70;85.72;100154.72;5013651;28;850;-58
2021/10/14 10:26:36;;;;;;;;;;;;;;;9.71;85.95;100139.75;5013599;28;815;-58
2021/10/14 10:29:03;;;;;;;;;;;;;;;9.71;85.89;100142.53;5013471;28;839;-57
2021/10/14 10:34:57;;;;;;;;;;;;;;;9.70;85.43;100131.84;5013470;28;672;-57
2021/10/14 10:37:28;;;;;;;;;;;;;;;9.70;86.10;100142.91;5013600;28;850;-57
2021/10/14 10:39:57;;;;;;;;;;;;;;;9.73;85.84;100145.69;5013311;28;910;-57
2021/10/14 10:42:36;;;;;;;;;;;;;;;9.77;86.03;100149.25;5013171;28;803;-57
2021/10/14 10:45:19;;;;;;;;;;;;;;;9.76;85.92;100144.91;5013370;28;792;-57
2021/10/14 10:47:54;;;;;;;;;;;;;;;9.74;86.11;100135.44;5013206;28;795;-57
2021/10/14 10:50:24;;;;;;;;;;;;;;;9.74;85.77;100135.44;5013292;28;1898;-57
2021/10/14 10:53:07;;;;;;;;;;;;;;;9.78;85.92;100134.25;4995447;28;1307;-57
2021/10/14 10:55:51;;;;;;;;;;;;;;;9.79;85.97;100137.78;5012986;28;818;-58
2021/10/14 10:58:40;;;;;;;;;;;;;;;9.79;85.90;100132.28;5012940;28;838;-58
2021/10/14 11:01:07;;;;;;;;;;;;;;;9.79;85.90;100130.34;5005053;28;1160;-58
2021/10/14 11:03:35;;;;;;;;;;;;;;;9.79;85.99;100141.38;5012785;28;827;-58
2021/10/14 11:06:10;;;;;;;;;;;;;;;9.79;85.97;100155.19;5012434;28;831;-58
2021/10/14 11:08:38;;;;;;;;;;;;;;;9.78;86.08;100139.00;5012807;28;870;-58
2021/10/14 11:11:08;;;;;;;;;;;;;;;9.77;85.94;100124.41;5012867;28;1890;-58
2021/10/14 11:13:36;;;;;;;;;;;;;;;9.84;86.12;100128.38;5012719;28;901;-58
2021/10/14 11:16:04;;;;;;;;;;;;;;;9.82;85.84;100126.78;5012793;28;912;-58
2021/10/14 11:18:31;;;;;;;;;;;;;;;9.79;86.26;100121.22;5012592;28;787;-58
2021/10/14 11:21:04;;;;;;;;;;;;;;;9.81;86.16;100119.69;5012615;28;806;-57
2021/10/14 11:23:50;;;;;;;;;;;;;;;9.83;86.44;100133.09;5012583;28;819;-57
2021/10/14 11:26:37;;;;;;;;;;;;;;;9.78;86.24;100119.66;5012401;28;1295;-57
2021/10/14 11:29:11;;;;;;;;;;;;;;;9.78;86.15;100112.16;5012444;28;823;-57
2021/10/14 11:31:52;;;;;;;;;;;;;;;9.79;86.48;100110.19;5012959;28;1938;-57
2021/10/14 11:34:20;;;;;;;;;;;;;;;9.85;86.06;100099.56;5012400;28;830;-58
2021/10/14 11:36:51;;;;;;;;;;;;;;;9.94;85.97;100100.78;5012279;28;823;-58
2021/10/14 11:39:18;;;;;;;;;;;;;;;9.97;85.73;100113.81;5012284;28;791;-58
2021/10/14 11:41:52;;;;;;;;;;;;;;;9.92;85.91;100105.91;4994521;28;859;-58
2021/10/14 11:44:18;;;;;;;;;;;;;;;9.93;86.01;100112.22;5012311;28;850;-58
2021/10/14 11:46:45;;;;;;;;;;;;;;;9.92;86.11;100116.16;5012178;28;815;-58
2021/10/14 11:49:12;;;;;;;;;;;;;;;9.93;86.26;100101.97;5012294;28;787;-58
2021/10/14 11:51:39;;;;;;;;;;;;;;;9.92;86.22;100094.88;5012028;28;1957;-57
2021/10/14 11:54:10;;;;;;;;;;;;;;;9.82;87.05;100098.38;5012110;28;831;-58
2021/10/14 11:56:46;;;;;;;;;;;;;;;9.71;87.49;100105.84;4994424;28;1221;-58
2021/10/14 11:59:15;;;;;;;;;;;;;;;9.64;87.96;100105.81;5011954;28;791;-58
2021/10/14 12:01:47;;;;;;;;;;;;;;;9.65;87.71;100101.88;4994352;28;1351;-57
2021/10/14 12:04:17;;;;;;;;;;;;;;;9.68;87.84;100084.53;5012033;28;811;-58
2021/10/14 12:06:44;;;;;;;;;;;;;;;9.71;88.09;100083.78;4994260;28;1224;-58
2021/10/14 12:09:13;;;;;;;;;;;;;;;9.77;87.73;100073.91;4994329;28;1304;-58
2021/10/14 12:11:40;;;;;;;;;;;;;;;9.79;87.73;100077.88;5011962;28;1950;-58
2021/10/14 12:14:07;;;;;;;;;;;;;;;9.81;87.20;100085.75;5011803;28;879;-58
2021/10/14 12:16:34;;;;;;;;;;;;;;;9.84;87.17;100086.97;5011911;28;1049;-58
2021/10/14 12:19:13;;;;;;;;;;;;;;;9.84;87.24;100101.56;5010944;28;831;-57
2021/10/14 12:21:42;;;;;;;;;;;;;;;9.87;86.74;100088.94;5011269;28;1222;-58
2021/10/14 12:24:14;;;;;;;;;;;;;;;9.89;86.75;100089.34;5012084;28;842;-58
2021/10/14 12:26:45;;;;;;;;;;;;;;;9.90;87.21;100090.91;4994068;28;1181;-57
2021/10/14 12:29:40;;;;;;;;;;;;;;;9.90;87.32;100096.41;5011732;28;858;-58
2021/10/14 12:32:08;;;;;;;;;;;;;;;9.87;86.96;100089.72;5009942;28;1914;-58
2021/10/14 12:34:55;;;;;;;;;;;;;;;9.94;86.57;100075.94;5011610;28;783;-57
2021/10/14 12:37:29;;;;;;;;;;;;;;;10.00;86.55;100082.63;5011580;28;835;-58
2021/10/14 12:40:11;;;;;;;;;;;;;;;9.97;86.62;100082.66;5011561;28;799;-58
2021/10/14 12:42:52;;;;;;;;;;;;;;;10.07;86.77;100076.34;5011583;28;802;-58
2021/10/14 12:45:32;;;;;;;;;;;;;;;10.09;86.13;100074.00;5011599;28;917;-57
2021/10/14 12:48:09;;;;;;;;;;;;;;;10.14;86.17;100065.31;4993883;28;1283;-58
2021/10/14 12:50:54;;;;;;;;;;;;;;;10.20;86.00;100077.56;5011476;28;1949;-58
2021/10/14 12:53:21;;;;;;;;;;;;;;;10.22;85.94;100074.41;5011466;28;915;-57
2021/10/14 12:56:01;;;;;;;;;;;;;;;10.31;85.97;100065.75;5011454;28;854;-58
2021/10/14 12:58:27;;;;;;;;;;;;;;;10.27;85.59;100057.44;5011672;28;854;-58
2021/10/14 13:01:19;;;;;;;;;;;;;;;10.26;86.22;100064.13;5011726;28;823;-58
2021/10/14 13:03:47;;;;;;;;;;;;;;;10.26;86.06;100052.28;5004327;28;986;-58
2021/10/14 13:06:13;;;;;;;;;;;;;;;10.30;86.61;100058.63;4993813;28;1209;-57
2021/10/14 13:08:41;;;;;;;;;;;;;;;10.37;85.42;100069.69;5011650;28;846;-57
2021/10/14 13:11:09;;;;;;;;;;;;;;;10.40;86.67;100063.38;5011252;28;1886;-58
2021/10/14 13:13:36;;;;;;;;;;;;;;;10.47;85.85;100065.34;5011321;28;862;-58
2021/10/14 13:16:03;;;;;;;;;;;;;;;10.47;86.22;100068.13;5011275;28;1012;-58
2021/10/14 13:18:30;;;;;;;;;;;;;;;10.40;86.21;100052.31;5011302;28;803;-58
2021/10/14 13:20:57;;;;;;;;;;;;;;;10.54;86.83;100051.53;5011212;28;855;-58
2021/10/14 13:23:24;;;;;;;;;;;;;;;10.58;86.59;100047.59;5011059;28;1373;-58
2021/10/14 13:25:54;;;;;;;;;;;;;;;10.64;86.34;100039.66;5011165;28;788;-59
2021/10/14 13:28:21;;;;;;;;;;;;;;;10.88;86.63;100046.34;5011092;28;877;-58
2021/10/14 13:30:48;;;;;;;;;;;;;;;11.04;86.12;100041.16;5014060;28;1914;-58
2021/10/14 13:33:17;;;;;;;;;;;;;;;11.06;85.04;100038.00;4997001;28;1338;-58
2021/10/14 13:35:46;;;;;;;;;;;;;;;10.94;85.35;100049.50;5014551;28;877;-58
2021/10/14 13:38:16;;;;;;;;;;;;;;;10.87;86.02;100049.50;5014438;28;795;-58
2021/10/14 13:40:48;;;;;;;;;;;;;;;10.84;85.63;100062.16;5014468;28;863;-58
2021/10/14 13:43:21;;;;;;;;;;;;;;;10.68;85.39;100062.56;5014695;28;898;-58
2021/10/14 13:45:48;;;;;;;;;;;;;;;10.60;85.80;100064.56;5014380;28;913;-58
2021/10/14 13:48:14;;;;;;;;;;;;;;;10.64;87.24;100081.13;5014278;28;855;-58
2021/10/14 13:50:42;;;;;;;;;;;;;;;10.83;87.82;100075.19;5014563;28;1952;-58
2021/10/14 13:53:09;;;;;;;;;;;;;;;11.02;87.25;100073.19;5014262;28;851;-58
2021/10/14 13:55:36;;;;;;;;;;;;;;;11.16;87.03;100064.03;5014127;28;817;-58
2021/10/14 13:58:02;;;;;;;;;;;;;;;11.23;86.77;100070.34;5014380;28;803;-58
2021/10/14 14:00:28;;;;;;;;;;;;;;;11.28;86.40;100052.53;5014099;28;905;-58